Terminal Aerodrome Forecast
Issued by NWS Louisville, KY

Home | Current Version | Previous Version | Text Only | Print | Product List | Glossary On
Versions: 1 2 3 4 5 6 7 8 9 10 11 12 13 14
334
FTUS43 KLMK 280520
TAFSDF
TAF
KSDF 280520Z 2806/2912 16008KT P6SM -SHRA BKN070
     FM280800 19008KT P6SM BKN110
     FM281700 22010KT P6SM VCSH BKN070
     FM290000 18004KT P6SM BKN250=

USA.gov is the U.S. government's official web portal to all federal, state and local government web resources and services.